Time;durP1;ratioP1;P1;durP2;ratioP2;P2;SDS_P1;SDS_P2;PMS_P1;PMS_P2;Temp;Humidity;BMP_temperature;BMP_pressure;BME280_temperature;BME280_humidity;BME280_pressure;Samples;Min_cycle;Max_cycle;Signal;HPM_P1;HPM_P2
2021/10/25 00:00:19;;;;;;;46.00;14.73;;;;;;;5.12;84.56;101785.70;5239157;56;1137002;-76
2021/10/25 00:05:27;;;;;;;33.20;12.70;;;;;;;5.02;84.89;101781.70;5239656;56;1137227;-77
2021/10/25 00:10:34;;;;;;;36.47;14.70;;;;;;;5.02;85.03;101773.83;5238132;56;1137012;-76
2021/10/25 00:15:40;;;;;;;38.53;14.67;;;;;;;5.01;85.03;101772.56;5184521;56;21626;-75
2021/10/25 00:20:46;;;;;;;43.53;15.73;;;;;;;5.02;85.17;101768.59;5147151;56;1135384;-75
2021/10/25 00:25:54;;;;;;;40.67;14.83;;;;;;;5.00;85.15;101766.47;5155130;56;1139106;-75
2021/10/25 00:31:00;;;;;;;32.58;13.85;;;;;;;4.95;85.64;101753.96;5147818;57;1141172;-74
2021/10/25 00:36:06;;;;;;;36.93;14.93;;;;;;;4.95;85.56;101755.27;5148360;56;1141141;-75
2021/10/25 00:41:13;;;;;;;41.23;16.73;;;;;;;4.91;85.61;101754.52;5146629;57;1139150;-76
2021/10/25 00:46:19;;;;;;;38.70;14.40;;;;;;;4.85;85.57;101752.58;5146545;57;1139024;-77
2021/10/25 00:51:27;;;;;;;43.50;15.07;;;;;;;4.81;85.66;101751.81;5146750;56;1139149;-77
2021/10/25 00:56:35;;;;;;;37.57;14.73;;;;;;;4.79;85.88;101740.98;5147190;56;1141082;-74
2021/10/25 01:01:42;;;;;;;42.63;15.47;;;;;;;4.77;86.12;101736.23;5165269;56;1138959;-76
2021/10/25 01:06:49;;;;;;;36.13;15.00;;;;;;;4.71;86.28;101726.84;5206740;56;1139043;-77
2021/10/25 01:11:56;;;;;;;38.77;15.60;;;;;;;4.70;86.14;101729.52;5216289;56;1139045;-77
2021/10/25 01:17:02;;;;;;;37.43;16.37;;;;;;;4.69;86.21;101721.25;5250839;56;1141112;-75
2021/10/25 01:22:08;;;;;;;45.47;16.53;;;;;;;4.66;86.20;101726.13;5250785;56;1139121;-75
2021/10/25 01:27:15;;;;;;;32.00;13.93;;;;;;;4.60;86.48;101723.25;5250676;56;1139042;-77
2021/10/25 01:32:21;;;;;;;41.97;15.97;;;;;;;4.55;86.27;101724.34;5250864;56;1139053;-77
2021/10/25 01:37:27;;;;;;;35.50;15.00;;;;;;;4.54;86.21;101713.45;5250776;56;1141125;-77
2021/10/25 01:42:32;;;;;;;39.05;15.98;;;;;;;4.49;86.56;101710.97;5250645;56;1139012;-77
2021/10/25 01:47:40;;;;;;;40.10;16.47;;;;;;;4.40;86.86;101704.75;5250582;56;1139042;-76
2021/10/25 01:52:47;;;;;;;40.13;16.33;;;;;;;4.40;86.54;101692.10;5242484;56;1139005;-75
2021/10/25 01:57:53;;;;;;;45.70;16.23;;;;;;;4.38;86.65;101686.05;5237939;56;1141164;-75
2021/10/25 02:03:00;;;;;;;42.90;18.90;;;;;;;4.33;86.61;101675.72;5237854;56;1139166;-73
2021/10/25 02:08:16;;;;;;;39.97;16.17;;;;;;;4.25;86.64;101669.90;5198067;56;1139034;-76
2021/10/25 02:13:41;;;;;;;40.63;16.30;;;;;;;4.19;86.67;101660.92;5200519;56;1139043;-74
2021/10/25 02:18:49;;;;;;;45.87;18.23;;;;;;;4.19;86.91;101662.23;5146746;56;1141602;-75
2021/10/25 02:23:56;;;;;;;50.73;20.63;;;;;;;4.15;87.07;101647.52;5147152;57;1139127;-74
2021/10/25 02:29:02;;;;;;;39.27;17.30;;;;;;;4.09;87.19;101650.36;5147062;57;1139095;-76
2021/10/25 02:34:08;;;;;;;41.80;17.73;;;;;;;4.07;87.09;101645.17;5147016;57;1139060;-75
2021/10/25 02:39:15;;;;;;;54.63;21.33;;;;;;;4.06;87.39;101636.05;5147060;57;1141311;-76
2021/10/25 02:44:22;;;;;;;52.80;20.03;;;;;;;4.01;87.35;101636.20;5146944;56;1139053;-77
2021/10/25 02:49:29;;;;;;;39.03;17.57;;;;;;;4.01;87.41;101634.03;5146991;57;1139096;-75
2021/10/25 02:54:35;;;;;;;46.68;18.95;;;;;;;4.01;87.16;101624.42;5157083;56;1136922;-78
2021/10/25 02:59:41;;;;;;;48.90;20.82;;;;;;;4.05;86.92;101616.02;5159359;56;1138986;-77
2021/10/25 03:04:48;;;;;;;55.00;22.53;;;;;;;4.03;86.90;101608.66;5159508;56;1136985;-77
2021/10/25 03:09:55;;;;;;;47.97;18.87;;;;;;;3.96;86.80;101602.80;5159272;56;1136976;-76
2021/10/25 03:15:02;;;;;;;47.03;18.03;;;;;;;3.86;86.82;101600.05;5221684;56;1137082;-74
2021/10/25 03:20:11;;;;;;;43.47;19.13;;;;;;;3.82;86.85;101590.58;5250516;56;1136931;-76
2021/10/25 03:25:18;;;;;;;54.77;21.43;;;;;;;3.79;87.04;101588.09;5250013;56;1138953;-79
2021/10/25 03:30:26;;;;;;;39.80;20.17;;;;;;;3.72;87.22;101581.33;5250241;56;1136964;-77
2021/10/25 03:35:32;;;;;;;41.07;17.37;;;;;;;3.62;87.59;101582.55;5250324;56;1136967;-76
2021/10/25 03:40:43;;;;;;;52.07;18.90;;;;;;;3.58;88.05;101588.31;5250439;56;1137002;-77
2021/10/25 03:45:54;;;;;;;48.47;18.90;;;;;;;3.56;88.06;101578.35;5250459;56;1139017;-76
2021/10/25 03:50:57;;;;;;;54.97;24.07;;;;;;;3.50;88.33;101568.10;5250269;56;1137064;-75
2021/10/25 03:56:32;;;;;;;44.60;18.07;;;;;;;3.43;88.49;101567.42;5250280;56;1137014;-76
2021/10/25 04:28:37;;;;;;;67.80;23.98;;;;;;;3.31;88.40;101550.82;5163798;57;1139079;-74
2021/10/25 04:33:42;;;;;;;66.35;29.12;;;;;;;3.33;88.39;101550.77;5078416;57;1139006;-75
2021/10/25 04:38:52;;;;;;;61.87;26.17;;;;;;;3.28;88.38;101542.20;5161803;57;1139074;-77
2021/10/25 04:43:58;;;;;;;48.67;21.00;;;;;;;3.24;88.27;101529.67;5163827;56;1139219;-74
2021/10/25 04:49:04;;;;;;;63.07;22.53;;;;;;;3.22;88.41;101533.23;5210784;56;1138826;-75
2021/10/25 04:54:28;;;;;;;50.80;20.95;;;;;;;3.17;88.45;101530.34;5226101;56;1138986;-74
2021/10/25 04:59:33;;;;;;;55.13;20.93;;;;;;;3.09;88.28;101530.15;5161152;56;1139123;-74
2021/10/25 05:04:39;;;;;;;46.50;20.23;;;;;;;3.07;88.29;101538.48;5180259;56;1139020;-77
2021/10/25 05:09:46;;;;;;;53.77;21.40;;;;;;;3.10;88.16;101530.11;5129149;57;1139237;-75
2021/10/25 05:14:51;;;;;;;56.48;25.62;;;;;;;3.11;88.15;101527.05;5148093;57;1139143;-74
2021/10/25 05:19:57;;;;;;;41.63;20.27;;;;;;;3.08;88.17;101528.44;5142488;56;1138901;-75
2021/10/25 05:25:06;;;;;;;44.07;18.43;;;;;;;3.02;88.30;101522.11;5150544;57;1136968;-75
2021/10/25 05:30:12;;;;;;;62.50;27.73;;;;;;;2.97;88.11;101519.62;5150600;57;1136983;-73
2021/10/25 05:35:19;;;;;;;84.80;37.37;;;;;;;2.98;88.19;101517.87;5120898;57;1137089;-75
2021/10/25 05:40:25;;;;;;;73.60;33.50;;;;;;;2.95;88.16;101516.20;5150690;57;1136890;-74
2021/10/25 05:45:33;;;;;;;48.30;20.93;;;;;;;2.88;88.17;101517.30;5150230;57;1136830;-79
2021/10/25 05:50:41;;;;;;;98.30;40.37;;;;;;;2.85;88.15;101507.38;5150782;57;1136973;-77
2021/10/25 05:55:48;;;;;;;212.70;91.00;;;;;;;2.82;88.16;101506.57;5150558;57;1137131;-76
2021/10/25 06:01:01;;;;;;;149.87;67.57;;;;;;;2.83;88.35;101499.59;5140056;57;1139080;-75
2021/10/25 06:06:13;;;;;;;69.90;31.47;;;;;;;2.84;88.41;101510.45;5123647;56;1139175;-75
2021/10/25 06:11:18;;;;;;;55.07;22.83;;;;;;;2.85;88.46;101506.94;5147897;57;1136954;-74
2021/10/25 06:16:36;;;;;;;62.70;23.97;;;;;;;2.90;88.41;101495.91;5149513;57;1136915;-77
2021/10/25 06:21:33;;;;;;;54.77;24.17;;;;;;;2.97;88.59;101505.70;5113604;57;1136952;-76
2021/10/25 06:26:40;;;;;;;62.20;24.17;;;;;;;3.12;89.36;101507.84;5233245;56;1137020;-76
2021/10/25 06:31:47;;;;;;;43.23;20.03;;;;;;;3.34;89.93;101513.27;5237136;56;1134955;-75
2021/10/25 06:36:53;;;;;;;48.17;19.90;;;;;;;3.68;90.38;101520.84;5237570;56;1134851;-76
2021/10/25 06:42:01;;;;;;;42.67;20.90;;;;;;;4.06;90.59;101520.88;5237204;56;1141047;-77
2021/10/25 06:47:14;;;;;;;42.83;19.60;;;;;;;4.38;89.97;101519.75;5150980;56;1139297;-77
2021/10/25 06:52:20;;;;;;;42.57;17.73;;;;;;;4.65;89.36;101519.19;5146965;57;1139210;-76
2021/10/25 06:57:26;;;;;;;41.57;18.70;;;;;;;4.90;89.04;101518.65;5159389;57;1139238;-76
2021/10/25 07:02:31;;;;;;;33.60;17.47;;;;;;;5.14;88.18;101518.17;5163266;57;1139305;-75
2021/10/25 07:07:40;;;;;;;44.40;18.67;;;;;;;5.33;87.73;101513.06;5137017;57;1138906;-75
2021/10/25 07:12:48;;;;;;;35.17;16.70;;;;;;;5.57;86.68;101515.54;5128467;56;1139230;-77
2021/10/25 07:18:06;;;;;;;40.73;16.37;;;;;;;5.81;85.79;101509.72;5169044;56;1141118;-75
2021/10/25 08:01:12;;;;;;;38.07;13.93;;;;;;;7.65;80.30;101490.71;5199935;56;972465;-75
2021/10/25 08:11:10;;;;;;;24.70;10.17;;;;;;;8.29;77.80;101480.83;5175793;55;1137019;-77
2021/10/25 08:21:24;;;;;;;26.73;10.93;;;;;;;8.19;76.54;101480.08;5188997;56;1134825;-76
2021/10/25 08:26:32;;;;;;;17.77;8.27;;;;;;;7.97;75.42;101481.65;5187040;56;1137345;-75
2021/10/25 08:31:40;;;;;;;17.00;7.50;;;;;;;7.80;74.38;101471.97;5184440;56;1135175;-77
2021/10/25 08:42:09;;;;;;;;;;;;;;;8.08;73.71;101474.06;5192425;56;1137251;-74
2021/10/25 08:47:23;;;;;;;18.97;8.70;;;;;;;8.18;73.40;101471.79;5186843;56;970104;-75
2021/10/25 08:52:27;;;;;;;15.63;6.50;;;;;;;8.41;74.40;101460.44;5188788;56;1134919;-77
2021/10/25 08:57:33;;;;;;;21.15;9.40;;;;;;;8.73;73.97;101469.24;5146163;56;1136965;-76
2021/10/25 09:02:45;;;;;;;16.77;9.20;;;;;;;8.78;71.88;101460.62;5132661;56;1137019;-77
2021/10/25 09:08:06;;;;;;;22.30;9.27;;;;;;;8.76;72.50;101467.77;5157774;56;1137260;-76
2021/10/25 09:13:23;;;;;;;21.23;7.77;;;;;;;8.80;73.06;101463.17;5121372;56;1136978;-77
2021/10/25 09:18:32;;;;;;;33.10;11.03;;;;;;;8.99;73.53;101448.03;5092108;56;1136965;-75
2021/10/25 09:23:43;;;;;;;16.10;7.97;;;;;;;9.07;73.01;101447.12;5108935;56;1139078;-76
2021/10/25 09:28:54;;;;;;;18.97;8.17;;;;;;;9.23;70.54;101448.89;5078442;56;1136902;-77
2021/10/25 09:34:13;;;;;;;10.70;6.33;;;;;;;9.13;71.62;101441.97;5080322;57;1137221;-78
2021/10/25 09:39:40;;;;;;;14.07;7.20;;;;;;;9.23;70.51;101434.38;5049593;57;1137210;-75
2021/10/25 09:50:01;;;;;;;19.53;7.57;;;;;;;9.60;71.31;101427.81;5138887;56;1139010;-73
2021/10/25 09:55:13;;;;;;;15.00;7.17;;;;;;;9.53;69.65;101425.52;5118001;57;1138978;-75
2021/10/25 10:00:21;;;;;;;14.20;6.53;;;;;;;9.57;70.96;101420.06;5127881;56;1139016;-75
2021/10/25 10:05:35;;;;;;;18.97;7.63;;;;;;;9.68;70.47;101422.44;5105736;57;1139069;-75
2021/10/25 10:10:42;;;;;;;18.10;8.13;;;;;;;9.74;70.34;101416.80;5115815;56;1139049;-76
2021/10/25 10:15:57;;;;;;;16.33;6.93;;;;;;;9.69;69.80;101412.73;5128277;56;1138949;-76
2021/10/25 10:21:05;;;;;;;15.10;7.77;;;;;;;9.76;69.83;101413.61;5127715;56;1139159;-72
2021/10/25 10:26:17;;;;;;;29.63;15.30;;;;;;;9.84;69.45;101398.12;5117537;56;1136931;-74
2021/10/25 10:31:27;;;;;;;12.33;6.57;;;;;;;10.01;70.37;101387.86;5125005;57;1139100;-75
2021/10/25 10:36:35;;;;;;;22.93;9.97;;;;;;;10.18;68.09;101388.14;5081366;56;1139452;-76
2021/10/25 10:41:51;;;;;;;20.33;9.03;;;;;;;10.27;68.39;101377.48;5105928;57;1139114;-77
2021/10/25 10:47:13;;;;;;;35.80;14.37;;;;;;;10.41;68.42;101374.34;5106420;56;1139032;-74
2021/10/25 11:03:24;;;;;;;23.17;11.07;;;;;;;10.79;68.30;101376.34;5095315;57;1141184;-75
2021/10/25 11:08:34;;;;;;;46.97;20.10;;;;;;;10.94;67.74;101366.09;5078607;57;1143241;-75
2021/10/25 11:13:52;;;;;;;12.10;7.17;;;;;;;11.12;67.92;101354.77;5130947;56;1143366;-75
2021/10/25 11:19:00;;;;;;;49.93;20.47;;;;;;;11.36;68.11;101353.58;5163536;56;1141127;-77
2021/10/25 11:24:11;;;;;;;13.53;6.63;;;;;;;11.54;65.44;101353.66;5163076;56;1143218;-75
2021/10/25 11:29:24;;;;;;;9.53;5.23;;;;;;;11.71;64.68;101348.06;5103963;56;1141426;-76
2021/10/25 11:34:34;;;;;;;15.60;7.70;;;;;;;11.86;62.38;101340.88;5079073;56;1139043;-75
2021/10/25 11:39:55;;;;;;;21.03;8.40;;;;;;;11.98;63.46;101351.46;5085250;57;1141131;-75
2021/10/25 11:45:10;;;;;;;13.78;6.87;;;;;;;12.11;63.07;101346.14;5126480;56;1140860;-75
2021/10/25 11:50:22;;;;;;;16.67;7.73;;;;;;;12.16;62.22;101320.63;5162955;56;1141115;-76
2021/10/25 11:55:35;;;;;;;18.07;6.83;;;;;;;12.21;61.61;101333.09;5163105;56;1141329;-74
2021/10/25 12:00:47;;;;;;;13.07;7.10;;;;;;;12.26;63.66;101329.13;5140345;57;1141167;-76
2021/10/25 12:05:59;;;;;;;20.00;6.90;;;;;;;12.47;63.75;101313.96;5134844;57;1141130;-73
2021/10/25 12:11:05;;;;;;;22.80;7.00;;;;;;;12.59;62.02;101309.08;5132920;57;1141350;-75
2021/10/25 12:16:14;;;;;;;11.93;6.83;;;;;;;12.64;62.42;101309.12;5217175;55;1141198;-74
2021/10/25 12:21:19;;;;;;;16.43;7.43;;;;;;;12.72;62.59;101301.91;5198176;56;1141013;-75
2021/10/25 12:26:25;;;;;;;14.17;6.60;;;;;;;12.66;62.26;101301.05;5152476;56;1141127;-77
2021/10/25 12:31:31;;;;;;;68.77;22.13;;;;;;;12.60;61.17;101297.02;5220720;56;1139079;-77
2021/10/25 12:36:40;;;;;;;22.10;7.47;;;;;;;12.61;63.14;101287.26;5198365;56;1141073;-75
2021/10/25 12:42:00;;;;;;;12.30;5.53;;;;;;;12.73;62.81;101286.83;5172334;56;1139030;-76
2021/10/25 12:47:09;;;;;;;16.33;6.83;;;;;;;12.84;61.58;101282.40;5155038;56;1139075;-77
2021/10/25 12:52:16;;;;;;;15.53;7.53;;;;;;;13.00;59.88;101274.98;5172152;56;1139081;-75
2021/10/25 12:57:26;;;;;;;18.90;7.03;;;;;;;13.15;60.56;101274.32;5175468;56;1139208;-76
2021/10/25 13:02:32;;;;;;;13.90;6.57;;;;;;;13.27;58.24;101272.56;5191126;56;1139039;-76
2021/10/25 13:07:38;;;;;;;10.27;5.80;;;;;;;13.34;59.62;101269.78;5231761;56;1138477;-76
2021/10/25 13:12:44;;;;;;;18.27;6.77;;;;;;;13.52;57.13;101264.85;5232697;55;1139060;-74
2021/10/25 13:17:51;;;;;;;21.00;7.00;;;;;;;13.46;58.72;101258.19;5150174;56;1139016;-74
2021/10/25 13:23:02;;;;;;;10.00;5.73;;;;;;;13.41;58.92;101263.52;5157162;56;1139080;-75
2021/10/25 13:28:09;;;;;;;16.67;7.77;;;;;;;13.60;58.66;101255.30;5231564;56;1139239;-75
2021/10/25 13:33:15;;;;;;;10.70;6.33;;;;;;;13.67;57.69;101244.56;5219032;56;1136411;-74
2021/10/25 13:38:21;;;;;;;18.57;7.57;;;;;;;13.88;58.86;101239.84;5145311;57;1137267;-75
2021/10/25 13:43:26;;;;;;;17.80;8.87;;;;;;;14.13;56.24;101243.55;5175151;56;1140446;-77
2021/10/25 13:48:32;;;;;;;14.40;7.10;;;;;;;14.35;57.73;101250.16;5170422;56;1141030;-75
2021/10/25 13:53:37;;;;;;;12.60;7.60;;;;;;;14.50;54.67;101235.26;5224617;56;1141315;-75
2021/10/25 13:58:43;;;;;;;8.73;5.00;;;;;;;14.64;54.88;101229.63;5156913;56;1141232;-75
2021/10/25 14:03:52;;;;;;;11.07;6.73;;;;;;;14.49;54.31;101214.94;5190931;56;1138624;-76
2021/10/25 14:08:59;;;;;;;21.87;12.57;;;;;;;14.05;54.39;101228.19;5221125;56;1141125;-74
2021/10/25 14:19:28;;;;;;;21.33;7.47;;;;;;;13.29;56.12;101222.30;5179235;55;1142411;-77
2021/10/25 14:24:34;;;;;;;104.70;58.87;;;;;;;13.06;57.08;101213.08;5189992;55;1140740;-75
2021/10/25 14:29:40;;;;;;;53.83;32.17;;;;;;;12.98;57.69;101215.85;5219293;56;1144625;-75
2021/10/25 14:34:46;;;;;;;31.80;14.97;;;;;;;13.04;58.38;101210.05;5212101;55;1143191;-75
2021/10/25 14:39:52;;;;;;;97.17;61.17;;;;;;;12.89;58.56;101213.88;5219453;56;1142673;-77
2021/10/25 14:45:24;;;;;;;28.33;14.20;;;;;;;12.75;59.19;101218.55;5194119;56;1143182;-76
2021/10/25 15:01:03;;;;;;;224.97;71.43;;;;;;;12.50;60.45;101204.48;5131054;57;1145228;-76
2021/10/25 15:06:09;;;;;;;204.03;68.20;;;;;;;12.41;61.08;101204.30;5076097;57;1144777;-75
2021/10/25 15:11:15;;;;;;;195.03;77.30;;;;;;;12.29;61.93;101204.25;5027945;57;1145421;-76
2021/10/25 15:16:22;;;;;;;176.70;74.73;;;;;;;12.19;62.64;101207.70;5124715;57;1145240;-74
2021/10/25 15:21:28;;;;;;;95.40;43.17;;;;;;;12.10;63.14;101202.58;5103818;57;1145216;-74
2021/10/25 15:26:36;;;;;;;105.00;39.23;;;;;;;11.97;63.51;101201.30;5129086;57;1143520;-75
2021/10/25 15:31:41;;;;;;;92.67;32.47;;;;;;;11.76;63.78;101193.59;5103695;57;1145259;-75
2021/10/25 15:36:47;;;;;;;77.10;24.43;;;;;;;11.63;64.45;101192.72;5109968;57;1143502;-76
2021/10/25 15:41:53;;;;;;;54.37;22.33;;;;;;;11.43;64.75;101194.16;5117289;57;1143529;-75
2021/10/25 15:46:59;;;;;;;71.57;25.07;;;;;;;11.15;65.15;101189.09;5117960;57;1143431;-73
2021/10/25 15:52:05;;;;;;;103.00;45.03;;;;;;;11.03;66.03;101188.12;5121269;57;1143192;-76
2021/10/25 15:57:14;;;;;;;83.70;29.40;;;;;;;10.91;66.34;101184.99;5106033;56;1143382;-75
2021/10/25 16:02:21;;;;;;;116.67;49.50;;;;;;;10.69;66.21;101192.23;5104334;56;1141142;-75
2021/10/25 16:07:27;;;;;;;202.80;94.93;;;;;;;10.46;66.72;101184.50;5162265;56;1143128;-75
2021/10/25 16:12:33;;;;;;;207.85;94.37;;;;;;;10.26;67.28;101182.31;5184401;56;1143096;-77
2021/10/25 16:17:39;;;;;;;177.27;80.00;;;;;;;10.11;67.61;101189.89;5179017;55;1143137;-76
2021/10/25 16:22:45;;;;;;;217.77;92.53;;;;;;;9.82;67.72;101183.84;5190627;56;1143208;-76
2021/10/25 16:27:52;;;;;;;173.90;81.63;;;;;;;9.56;68.15;101176.73;5215337;56;1139230;-76
2021/10/25 16:32:57;;;;;;;102.60;51.33;;;;;;;9.46;69.06;101177.31;5167873;56;1141133;-76
2021/10/25 16:38:03;;;;;;;62.20;34.67;;;;;;;9.46;69.33;101168.55;5155016;56;1141157;-76
2021/10/25 16:43:09;;;;;;;57.23;29.63;;;;;;;9.46;69.73;101164.12;5134778;56;1139187;-75
2021/10/25 16:48:23;;;;;;;40.60;18.70;;;;;;;9.41;69.85;101170.14;5210971;56;1139098;-77
2021/10/25 17:09:28;;;;;;;95.80;44.77;;;;;;;8.96;70.10;101172.50;5111571;57;1140711;-75
2021/10/25 17:14:34;;;;;;;180.13;81.20;;;;;;;8.86;70.54;101177.93;5152308;57;1139390;-76
2021/10/25 17:19:40;;;;;;;168.30;72.20;;;;;;;8.82;71.07;101168.53;5135448;57;1141146;-76
2021/10/25 17:24:47;;;;;;;100.70;50.20;;;;;;;8.80;71.00;101170.41;5091448;57;1143785;-77
2021/10/25 17:29:53;;;;;;;121.33;46.33;;;;;;;8.78;71.05;101173.59;5079513;57;1143196;-76
2021/10/25 17:34:59;;;;;;;114.93;39.10;;;;;;;8.65;70.86;101175.27;5079313;57;1143228;-76
2021/10/25 17:40:13;;;;;;;63.20;26.90;;;;;;;8.62;71.34;101175.44;5086872;57;1143114;-76
2021/10/25 17:45:14;;;;;;;49.43;20.30;;;;;;;8.48;71.12;101165.71;5113631;56;1139024;-77
2021/10/25 17:50:21;;;;;;;42.20;16.83;;;;;;;8.34;71.43;101173.11;5080850;56;1139056;-76
2021/10/25 17:55:28;;;;;;;55.70;26.57;;;;;;;8.26;71.48;101167.84;5097387;56;1139299;-76
2021/10/25 18:00:34;;;;;;;68.27;40.17;;;;;;;8.01;71.48;101177.16;5087075;57;1139054;-76
2021/10/25 18:05:40;;;;;;;63.70;37.67;;;;;;;7.88;71.99;101169.57;5102714;57;1139296;-75
2021/10/25 18:10:47;;;;;;;72.90;34.20;;;;;;;7.74;72.21;101166.39;5153517;56;1139118;-75
2021/10/25 18:15:58;;;;;;;90.13;49.30;;;;;;;7.65;72.59;101163.41;5133176;56;1141058;-76
2021/10/25 18:21:04;;;;;;;114.57;59.53;;;;;;;7.68;72.95;101157.97;5158006;56;1141235;-76
2021/10/25 18:26:10;;;;;;;137.70;64.47;;;;;;;7.73;73.06;101158.11;5122355;57;1143088;-77
2021/10/25 18:31:15;;;;;;;152.77;70.43;;;;;;;7.72;73.13;101168.27;5132513;56;1143483;-76
2021/10/25 18:36:22;;;;;;;127.80;60.07;;;;;;;7.57;73.02;101142.78;5108815;57;1141450;-76
2021/10/25 18:41:29;;;;;;;141.50;69.87;;;;;;;7.46;73.25;101141.68;5079817;57;1141060;-76
2021/10/25 18:46:36;;;;;;;125.77;59.60;;;;;;;7.44;73.58;101140.91;5106998;56;1141112;-74
2021/10/25 18:51:41;;;;;;;92.20;46.77;;;;;;;7.35;73.41;101136.98;5111362;56;1141086;-76
2021/10/25 18:56:48;;;;;;;73.72;35.17;;;;;;;7.19;73.37;101139.59;5118242;56;1139083;-76
2021/10/25 19:01:54;;;;;;;60.67;27.83;;;;;;;7.18;73.81;101141.83;5115340;56;1141055;-75
2021/10/25 19:07:00;;;;;;;86.80;38.00;;;;;;;7.20;73.93;101141.28;5128202;56;1141493;-76
2021/10/25 19:12:10;;;;;;;119.03;51.73;;;;;;;7.15;73.56;101131.97;5189699;56;1141058;-76
2021/10/25 19:17:15;;;;;;;94.87;45.83;;;;;;;6.90;73.57;101125.82;5175004;56;1141083;-76
2021/10/25 19:22:21;;;;;;;115.43;50.63;;;;;;;6.78;74.15;101119.90;5175279;56;1139154;-77
2021/10/25 19:27:28;;;;;;;86.13;38.73;;;;;;;6.68;74.63;101118.23;5192193;55;1141446;-76
2021/10/25 19:32:35;;;;;;;71.53;33.87;;;;;;;6.60;74.85;101110.72;5185107;55;1139298;-76
2021/10/25 19:37:43;;;;;;;58.37;25.90;;;;;;;6.54;74.98;101115.00;5184425;56;1139039;-77
2021/10/25 19:42:49;;;;;;;43.20;20.90;;;;;;;6.57;75.58;101114.81;5185192;56;1139034;-77
2021/10/25 19:47:54;;;;;;;35.03;17.27;;;;;;;6.59;75.25;101115.59;5188872;56;1141095;-77
2021/10/25 19:53:01;;;;;;;23.83;11.10;;;;;;;6.61;75.51;101130.82;5184230;56;1139076;-77
2021/10/25 19:58:07;;;;;;;22.47;10.97;;;;;;;6.64;75.34;101119.30;5179009;56;1139053;-75
2021/10/25 20:03:13;;;;;;;36.53;10.73;;;;;;;6.62;75.49;101127.73;5161682;56;1137195;-76
2021/10/25 20:08:21;;;;;;;23.40;9.53;;;;;;;6.44;75.04;101109.80;5122900;57;1137210;-76
2021/10/25 20:13:27;;;;;;;29.10;13.07;;;;;;;6.31;75.82;101110.90;5121760;57;1134894;-76
2021/10/25 20:18:34;;;;;;;42.40;18.70;;;;;;;6.32;76.13;101112.59;5120203;57;1136929;-77
2021/10/25 20:23:41;;;;;;;41.00;17.37;;;;;;;6.25;75.81;101111.69;5120170;56;1137022;-77
2021/10/25 20:28:47;;;;;;;46.33;18.17;;;;;;;6.11;75.56;101108.91;5112858;57;1137280;-76
2021/10/25 20:33:53;;;;;;;45.57;16.87;;;;;;;5.98;75.92;101113.42;5088826;57;1139121;-76
2021/10/25 20:38:58;;;;;;;40.17;17.20;;;;;;;5.94;76.33;101113.20;5079662;57;1139062;-77
2021/10/25 20:44:04;;;;;;;39.50;15.93;;;;;;;5.92;76.58;101108.48;5069135;57;1137076;-77
2021/10/25 20:49:10;;;;;;;53.87;16.63;;;;;;;5.78;76.47;101111.36;5068380;57;1136898;-77
2021/10/25 20:54:16;;;;;;;41.20;16.70;;;;;;;5.78;77.49;101120.55;5068228;57;1136994;-75
2021/10/25 20:59:22;;;;;;;41.07;17.77;;;;;;;5.77;77.23;101120.16;5068790;57;1137018;-77
2021/10/25 21:04:28;;;;;;;42.50;15.27;;;;;;;5.71;77.50;101122.61;5101722;57;1137016;-76
2021/10/25 21:09:34;;;;;;;59.40;22.90;;;;;;;5.67;77.62;101123.66;5153463;56;1136996;-76
2021/10/25 21:14:40;;;;;;;46.47;22.47;;;;;;;5.74;77.60;101115.05;5169977;56;1139009;-76
2021/10/25 21:19:47;;;;;;;51.93;20.97;;;;;;;5.65;77.15;101105.37;5179534;56;1137104;-77
2021/10/25 21:24:53;;;;;;;46.50;16.93;;;;;;;5.66;77.92;101111.47;5177743;56;1134840;-76
2021/10/25 21:30:01;;;;;;;42.13;16.75;;;;;;;5.65;77.93;101104.55;5192252;56;1138912;-77
2021/10/25 21:35:08;;;;;;;48.20;20.10;;;;;;;5.55;77.51;101101.49;5173178;56;1138936;-76
2021/10/25 21:40:13;;;;;;;56.77;19.33;;;;;;;5.42;77.64;101110.02;5175478;56;1138972;-76
2021/10/25 21:45:19;;;;;;;30.60;13.93;;;;;;;5.44;78.23;101101.62;5170092;56;1139062;-76
2021/10/25 21:50:25;;;;;;;48.80;19.47;;;;;;;5.48;77.99;101098.78;5173383;56;1138930;-76
2021/10/25 21:55:32;;;;;;;23.93;11.30;;;;;;;5.51;77.67;101100.39;5167685;56;1141013;-76
2021/10/25 22:00:37;;;;;;;28.30;11.83;;;;;;;5.36;77.28;101095.86;5130994;57;1139011;-75
2021/10/25 22:05:44;;;;;;;25.67;11.80;;;;;;;5.21;77.68;101094.34;5129353;57;1139260;-75
2021/10/25 22:10:49;;;;;;;25.53;10.83;;;;;;;5.16;77.97;101095.04;5087885;57;1139273;-77
2021/10/25 22:15:55;;;;;;;30.33;12.63;;;;;;;5.03;77.71;101095.67;5142000;56;1139262;-76
2021/10/25 22:21:01;;;;;;;33.67;15.17;;;;;;;4.89;78.17;101094.50;5069037;57;1139235;-76
2021/10/25 22:26:08;;;;;;;27.73;14.53;;;;;;;4.87;78.65;101104.23;5154087;56;1139044;-76
2021/10/25 22:31:14;;;;;;;51.27;17.37;;;;;;;4.89;78.37;101102.81;5081564;57;1139269;-76
2021/10/25 22:36:19;;;;;;;33.97;15.93;;;;;;;4.95;78.71;101099.94;5231230;56;1141049;-76
2021/10/25 22:41:24;;;;;;;52.87;18.97;;;;;;;4.95;78.34;101094.23;5231279;56;1139239;-77
2021/10/25 22:46:30;;;;;;;58.37;21.23;;;;;;;4.85;78.49;101096.89;5231504;56;1138928;-76
2021/10/25 22:51:36;;;;;;;78.27;30.83;;;;;;;4.85;78.99;101094.73;5231467;56;1139005;-76
2021/10/25 22:56:42;;;;;;;94.67;35.97;;;;;;;4.86;79.18;101098.59;5231679;56;1139075;-76
2021/10/25 23:01:50;;;;;;;252.60;92.07;;;;;;;4.90;79.40;101101.91;5232197;56;1139505;-76
2021/10/25 23:06:55;;;;;;;193.53;72.30;;;;;;;5.01;79.78;101104.06;5232088;56;1141130;-76
2021/10/25 23:12:05;;;;;;;97.50;40.20;;;;;;;5.15;80.14;101106.45;5231635;56;1143169;-76
2021/10/25 23:17:11;;;;;;;124.63;47.20;;;;;;;5.32;80.46;101112.23;5045743;58;1141583;-77
2021/10/25 23:22:17;;;;;;;108.77;46.10;;;;;;;5.45;80.51;101115.13;5226195;56;1141348;-77
2021/10/25 23:27:24;;;;;;;87.10;33.87;;;;;;;5.53;80.54;101118.22;5045372;58;1141230;-77
2021/10/25 23:32:30;;;;;;;365.67;112.57;;;;;;;5.58;80.40;101107.91;5226559;56;1139173;-77
2021/10/25 23:37:36;;;;;;;92.13;37.10;;;;;;;5.59;80.52;101110.92;5045397;58;1143369;-76
2021/10/25 23:42:42;;;;;;;76.50;34.93;;;;;;;5.63;80.41;101106.39;5226186;56;1139015;-77
2021/10/25 23:47:49;;;;;;;57.75;25.45;;;;;;;5.69;80.42;101106.54;5054592;58;1141306;-76
2021/10/25 23:52:55;;;;;;;49.63;22.77;;;;;;;5.75;80.61;101111.05;5236360;56;1141121;-76
2021/10/25 23:58:00;;;;;;;43.37;18.20;;;;;;;5.76;80.49;101105.33;5236590;56;1139025;-76
